Terminal Aerodrome Forecast
Issued by NWS

Home | Current Version | Previous Version | Graphics & Text | Print | Product List | Glossary On
Versions: 1 2 3 4 5 6 7 8 9 10 11 12 13 14 15 16 17 18 19 20 21 22 23 24 25
000
FTUS43 KDLH 032200 AAB
TAFHIB
TAF AMD
KHIB 032200Z 0322/0418 28010KT P6SM VCSH SCT040 BKN050
     FM040100 32006KT P6SM SCT050 SCT090
     FM040500 32006KT P6SM BKN030
      TEMPO 0409/0413 1SM BR OVC004
     FM041500 34007G18KT P6SM OVC050=

USA.gov is the U.S. government's official web portal to all federal, state and local government web resources and services.